Time;durP1;ratioP1;P1;durP2;ratioP2;P2;SDS_P1;SDS_P2;PMS_P1;PMS_P2;Temp;Humidity;BMP_temperature;BMP_pressure;BME280_temperature;BME280_humidity;BME280_pressure;Samples;Min_cycle;Max_cycle;Signal;HPM_P1;HPM_P2
2022/01/05 00:00:39;;;;;;;10.90;1.45;;;;;;;;;;5067256;28;20056;-84
2022/01/05 00:03:05;;;;;;;12.23;2.20;;;4.00;70.90;;;;;;5069906;28;20167;-84
2022/01/05 00:05:32;;;;;;;10.30;1.48;;;;;;;;;;5065666;28;20033;-84
2022/01/05 00:07:58;;;;;;;8.60;1.63;;;;;;;;;;5052449;28;20032;-84
2022/01/05 00:10:24;;;;;;;9.85;1.63;;;;;;;;;;5074711;28;20036;-84
2022/01/05 00:12:50;;;;;;;12.65;1.80;;;;;;;;;;5069320;28;20051;-84
2022/01/05 00:15:17;;;;;;;10.00;2.10;;;;;;;;;;5071138;28;20036;-85
2022/01/05 00:17:43;;;;;;;17.67;2.45;;;;;;;;;;5053802;28;20077;-84
2022/01/05 00:20:09;;;;;;;10.45;2.10;;;;;;;;;;5052474;28;20071;-84
2022/01/05 00:22:36;;;;;;;9.60;2.15;;;;;;;;;;5057256;28;20159;-85
2022/01/05 00:25:02;;;;;;;14.07;2.00;;;;;;;;;;5063031;28;20039;-84
2022/01/05 00:27:28;;;;;;;16.95;2.63;;;;;;;;;;5073346;28;20314;-84
2022/01/05 00:29:54;;;;;;;10.02;1.88;;;;;;;;;;5053326;28;20047;-84
2022/01/05 00:32:20;;;;;;;19.83;2.70;;;;;;;;;;5052258;28;20041;-85
2022/01/05 00:34:46;;;;;;;10.60;1.88;;;;;;;;;;5072470;28;20035;-85
2022/01/05 00:37:12;;;;;;;14.40;2.45;;;;;;;;;;5072715;28;20079;-84
2022/01/05 00:39:39;;;;;;;14.15;2.10;;;;;;;;;;5043438;28;20250;-85
2022/01/05 00:42:05;;;;;;;18.55;3.38;;;;;;;;;;5062310;28;20271;-84
2022/01/05 00:44:31;;;;;;;19.92;2.53;;;;;;;;;;5055768;28;20036;-84
2022/01/05 00:46:57;;;;;;;13.82;3.20;;;;;;;;;;5066540;28;20033;-84
2022/01/05 00:49:23;;;;;;;7.05;1.80;;;;;;;;;;5070675;28;20171;-84
2022/01/05 00:51:49;;;;;;;11.50;1.63;;;;;;;;;;5070908;28;20100;-84
2022/01/05 00:54:15;;;;;;;8.43;1.50;;;;;;;;;;5070975;28;20039;-84
2022/01/05 00:56:42;;;;;;;16.98;2.20;;;;;;;;;;5049367;28;20182;-84
2022/01/05 00:59:08;;;;;;;15.90;2.97;;;;;;;;;;5044175;28;20323;-84
2022/01/05 01:01:34;;;;;;;16.33;2.47;;;;;;;;;;5056624;28;20056;-83
2022/01/05 01:04:00;;;;;;;17.42;2.10;;;;;;;;;;5058417;28;20029;-83
2022/01/05 01:06:26;;;;;;;12.00;2.00;;;;;;;;;;5051326;28;20033;-83
2022/01/05 01:08:52;;;;;;;14.65;1.90;;;;;;;;;;5050187;28;20059;-84
2022/01/05 01:11:18;;;;;;;14.68;2.28;;;;;;;;;;5066916;28;20052;-83
2022/01/05 01:13:44;;;;;;;19.23;2.38;;;;;;;;;;5065481;28;20168;-84
2022/01/05 01:16:10;;;;;;;16.52;1.92;;;;;;;;;;5051730;28;20035;-84
2022/01/05 01:18:36;;;;;;;14.88;2.70;;;;;;;;;;5049164;28;20032;-83
2022/01/05 01:21:03;;;;;;;14.13;2.53;;;;;;;;;;5048586;28;20041;-83
2022/01/05 01:23:29;;;;;;;17.25;2.10;;;;;;;;;;5064363;28;20298;-83
2022/01/05 01:25:55;;;;;;;9.32;1.70;;;;;;;;;;5065491;28;20307;-83
2022/01/05 01:28:23;;;;;;;9.27;1.70;;;;;;;;;;5050377;28;20033;-84
2022/01/05 01:30:49;;;;;;;12.07;1.60;;;;;;;;;;5071644;28;20046;-83
2022/01/05 01:33:15;;;;;;;11.02;2.05;;;;;;;;;;5072239;28;20365;-83
2022/01/05 01:35:42;;;;;;;13.00;1.67;;;;;;;;;;5066682;28;20071;-83
2022/01/05 01:38:08;;;;;;;12.82;2.17;;;;;;;;;;5069400;28;20041;-84
2022/01/05 01:40:34;;;;;;;10.10;1.98;;;;;;;;;;5076274;28;20094;-83
2022/01/05 01:43:00;;;;;;;13.25;2.03;;;;;;;;;;5073477;28;20025;-84
2022/01/05 01:45:27;;;;;;;11.77;1.85;;;;;;;;;;5071630;28;20077;-84
2022/01/05 01:47:53;;;;;;;13.05;2.10;;;;;;;;;;5058673;28;20033;-84
2022/01/05 01:50:19;;;;;;;16.00;1.40;;;;;;;;;;5078270;28;20126;-84
2022/01/05 01:52:45;;;;;;;17.52;2.53;;;;;;;;;;5069942;28;20031;-84
2022/01/05 01:55:12;;;;;;;14.45;2.22;;;;;;;;;;5078463;28;20104;-84
2022/01/05 01:57:40;;;;;;;10.23;2.22;;;;;;;;;;5049963;28;20349;-83
2022/01/05 02:00:07;;;;;;;11.73;2.10;;;;;;;;;;5076058;28;20282;-83
2022/01/05 02:02:33;;;;;;;11.15;2.13;;;;;;;;;;5074159;28;20162;-84
2022/01/05 02:04:59;;;;;;;20.23;2.80;;;;;;;;;;5073871;28;20037;-84
2022/01/05 02:07:26;;;;;;;12.85;2.72;;;;;;;;;;5069191;28;20052;-84
2022/01/05 02:09:52;;;;;;;14.45;2.65;;;;;;;;;;5069034;28;20099;-84
2022/01/05 02:12:18;;;;;;;11.73;1.83;;;;;;;;;;5054070;28;20044;-84
2022/01/05 02:14:44;;;;;;;14.88;2.08;;;;;;;;;;5069929;28;20045;-84
2022/01/05 02:17:20;;;;;;;11.50;2.88;;;;;;;;;;5070104;28;20051;-84
2022/01/05 02:19:46;;;;;;;19.45;3.28;;;;;;;;;;5053079;28;20032;-85
2022/01/05 02:22:13;;;;;;;16.15;2.38;;;;;;;;;;5070761;28;20032;-85
2022/01/05 02:24:39;;;;;;;12.80;2.33;;;;;;;;;;5057771;28;20037;-84
2022/01/05 02:27:05;;;;;;;12.90;2.35;;;;;;;;;;5056747;28;20080;-83
2022/01/05 02:29:31;;;;;;;16.02;3.00;;;;;;;;;;5058560;28;20111;-84
2022/01/05 02:32:00;;;;;;;16.17;2.08;;;;;;;;;;5072534;28;20037;-84
2022/01/05 02:34:26;;;;;;;10.30;2.03;;;;;;;;;;5071107;28;20562;-84
2022/01/05 02:36:52;;;;;;;8.82;2.33;;;;;;;;;;5052795;28;20043;-85
2022/01/05 02:39:18;;;;;;;20.80;2.90;;;;;;;;;;5071331;28;20040;-85
2022/01/05 02:41:44;;;;;;;15.57;2.60;;;;;;;;;;5060548;28;20090;-89
2022/01/05 02:44:10;;;;;;;9.15;1.45;;;;;;;;;;5062050;28;20025;-91
2022/01/05 02:46:37;;;;;;;11.60;1.98;;;;;;;;;;5070993;28;20123;-91
2022/01/05 02:49:04;;;;;;;10.18;2.15;;;;;;;;;;5053250;28;20044;-90
2022/01/05 02:51:30;;;;;;;12.88;1.80;;;;;;;;;;5060494;28;20036;-88
2022/01/05 02:53:56;;;;;;;8.73;1.38;;;;;;;;;;5065502;28;20028;-88
2022/01/05 02:56:23;;;;;;;14.43;1.98;;;;;;;;;;5054508;28;20151;-90
2022/01/05 02:58:49;;;;;;;17.98;1.88;;;;;;;;;;5064824;28;20075;-84
2022/01/05 03:01:15;;;;;;;10.00;1.75;;;;;;;;;;5085181;28;20195;-87
2022/01/05 03:03:41;;;;;;;9.73;2.20;;;;;;;;;;5081830;28;20313;-85
2022/01/05 03:06:07;;;;;;;10.27;1.30;;;;;;;;;;5071446;28;20048;-88
2022/01/05 03:08:33;;;;;;;11.10;1.90;;;;;;;;;;5075317;28;20036;-87
2022/01/05 03:10:59;;;;;;;10.88;1.77;;;;;;;;;;5054148;28;20048;-86
2022/01/05 03:13:26;;;;;;;12.43;2.58;;;;;;;;;;5070340;28;20089;-86
2022/01/05 03:15:52;;;;;;;11.88;2.40;;;;;;;;;;5065150;28;20044;-87
2022/01/05 03:18:19;;;;;;;17.45;2.25;;;;;;;;;;5070697;28;20047;-87
2022/01/05 03:20:47;;;;;;;14.82;1.85;;;;;;;;;;5069748;28;20041;-86
2022/01/05 03:23:14;;;;;;;22.20;3.63;;;;;;;;;;5056022;28;20032;-87
2022/01/05 03:25:40;;;;;;;14.27;2.38;;;;;;;;;;5069291;28;20062;-87
2022/01/05 03:28:06;;;;;;;14.55;2.38;;;;;;;;;;5053857;28;20037;-87
2022/01/05 03:30:33;;;;;;;14.00;2.55;;;;;;;;;;5070790;28;20021;-86
2022/01/05 03:35:34;;;;;;;19.52;2.47;;;;;;;;;;5072424;28;20032;-90
2022/01/05 03:38:00;;;;;;;24.88;2.80;;;;;;;;;;5056227;28;20155;-87
2022/01/05 03:40:26;;;;;;;16.73;2.28;;;;;;;;;;5073365;28;20040;-87
2022/01/05 03:42:52;;;;;;;18.05;2.58;;;;;;;;;;5057064;28;20253;-87
2022/01/05 03:45:19;;;;;;;14.43;2.75;;;;;;;;;;5076606;28;20251;-87
2022/01/05 03:47:45;;;;;;;12.48;2.25;;;;;;;;;;5079116;28;20158;-86
2022/01/05 03:50:11;;;;;;;11.88;1.83;;;;;;;;;;5074302;28;20032;-87
2022/01/05 03:52:37;;;;;;;13.07;2.53;;;;;;;;;;5080098;28;20032;-86
2022/01/05 03:55:05;;;;;;;10.00;2.17;;;;;;;;;;5054870;28;20071;-87
2022/01/05 03:57:32;;;;;;;15.82;3.00;;;;;;;;;;5066409;28;20298;-87
2022/01/05 03:59:58;;;;;;;12.18;2.05;;;;;;;;;;5054680;28;20060;-84
2022/01/05 04:02:24;;;;;;;5.60;1.58;;;;;;;;;;5061591;28;20044;-86
2022/01/05 04:04:51;;;;;;;7.65;1.08;;;;;;;;;;5070528;28;20051;-88
2022/01/05 04:07:17;;;;;;;14.98;1.63;;;;;;;;;;5071891;28;20054;-87
2022/01/05 04:09:44;;;;;;;15.50;2.65;;;;;;;;;;5073097;28;20033;-86
2022/01/05 04:12:10;;;;;;;18.17;2.78;;;;;;;;;;5055629;28;20453;-87
2022/01/05 04:14:36;;;;;;;18.40;2.70;;;;;;;;;;5069778;28;20104;-86
2022/01/05 04:17:02;;;;;;;9.05;1.35;;;;;;;;;;5076175;28;20096;-85
2022/01/05 04:19:28;;;;;;;7.28;0.90;;;;;;;;;;5068053;28;20044;-87
2022/01/05 04:21:55;;;;;;;10.73;2.10;;;;;;;;;;5068275;28;20025;-86
2022/01/05 04:24:21;;;;;;;22.48;3.00;;;;;;;;;;5067657;28;20067;-87
2022/01/05 04:26:48;;;;;;;19.73;2.97;;;;;;;;;;5058027;28;20273;-87
2022/01/05 04:29:14;;;;;;;21.75;3.97;;;;;;;;;;5070137;28;20259;-87
2022/01/05 04:31:40;;;;;;;13.55;2.17;;;;;;;;;;5050815;28;20040;-88
2022/01/05 04:34:06;;;;;;;17.42;2.72;;;;;;;;;;5066315;28;20041;-87
2022/01/05 04:36:32;;;;;;;11.55;1.73;;;;;;;;;;5075797;28;20082;-87
2022/01/05 04:38:59;;;;;;;16.13;2.90;;;;;;;;;;5058841;28;20040;-85
2022/01/05 04:41:25;;;;;;;23.35;3.10;;;;;;;;;;5074804;28;20033;-91
2022/01/05 04:43:51;;;;;;;17.73;3.03;;;;;;;;;;5057171;28;20028;-89
2022/01/05 04:46:17;;;;;;;12.52;2.13;;;;;;;;;;5054861;28;20090;-89
2022/01/05 04:48:43;;;;;;;20.88;3.30;;;;;;;;;;5056274;28;20032;-89
2022/01/05 04:51:09;;;;;;;12.23;2.30;;;;;;;;;;5065892;28;20043;-88
2022/01/05 04:53:36;;;;;;;20.92;3.88;;;;;;;;;;5077173;28;20033;-89
2022/01/05 04:56:02;;;;;;;11.18;1.95;;;;;;;;;;5068622;28;20028;-89
2022/01/05 04:58:28;;;;;;;10.77;2.42;;;;;;;;;;5074218;28;20033;-89
2022/01/05 05:00:54;;;;;;;10.55;2.47;;;;;;;;;;5077245;28;20056;-89
2022/01/05 05:03:20;;;;;;;12.45;2.13;;;;;;;;;;5065915;28;20053;-89
2022/01/05 05:05:49;;;;;;;10.00;2.25;;;;;;;;;;5076789;28;20066;-90
2022/01/05 05:08:15;;;;;;;12.45;2.47;;;;;;;;;;5052380;28;20265;-88
2022/01/05 05:10:41;;;;;;;13.82;1.95;;;;;;;;;;5065591;28;20033;-87
2022/01/05 05:13:08;;;;;;;16.63;2.67;;;;;;;;;;5079716;28;20025;-88
2022/01/05 05:15:34;;;;;;;6.80;1.33;;;;;;;;;;5065234;28;20274;-89
2022/01/05 05:18:01;;;;;;;8.98;1.98;;;;;;;;;;5068343;28;20028;-91
2022/01/05 05:20:27;;;;;;;6.47;1.05;;;;;;;;;;5069971;28;20082;-91
2022/01/05 05:22:53;;;;;;;14.77;2.50;;;;;;;;;;5069007;28;20091;-90
2022/01/05 05:25:19;;;;;;;10.90;1.38;;;;;;;;;;5086531;28;20452;-91
2022/01/05 05:27:48;;;;;;;8.15;1.20;;;;;;;;;;5067007;28;20032;-90
2022/01/05 05:30:43;;;;;;;17.42;1.65;;;;;;;;;;5062624;28;20039;-90
2022/01/05 05:33:09;;;;;;;20.92;1.95;;;;;;;;;;5059207;28;20064;-88
2022/01/05 05:35:35;;;;;;;10.07;2.08;;;;;;;;;;5070725;28;20316;-90
2022/01/05 05:38:05;;;;;;;18.42;2.80;;;;;;;;;;5065400;28;20124;-90
2022/01/05 05:40:34;;;;;;;10.68;2.13;;;;;;;;;;5067750;28;20055;-91
2022/01/05 05:43:00;;;;;;;14.07;2.10;;;;;;;;;;5084716;28;20029;-87
2022/01/05 05:45:26;;;;;;;16.80;1.88;;;;;;;;;;5085381;28;20112;-89
2022/01/05 05:47:55;;;;;;;17.38;2.45;;;;;;;;;;5073646;28;20175;-89
2022/01/05 05:50:29;;;;;;;19.58;3.67;;;;;;;;;;5065737;28;20025;-88
2022/01/05 05:52:56;;;;;;;14.55;2.38;;;;;;;;;;5076589;28;20349;-89
2022/01/05 05:55:22;;;;;;;13.88;2.20;;;;;;;;;;5069846;28;20088;-88
2022/01/05 05:57:48;;;;;;;19.77;2.60;;;;;;;;;;5059885;28;20182;-86
2022/01/05 06:00:14;;;;;;;16.25;2.47;;;;;;;;;;5079049;28;20115;-88
2022/01/05 06:02:41;;;;;;;15.25;3.15;;;;;;;;;;5057367;28;20110;-87
2022/01/05 06:05:07;;;;;;;10.05;1.80;;;;;;;;;;5064753;28;20032;-87
2022/01/05 06:07:33;;;;;;;14.65;2.80;;;;;;;;;;5069390;28;20451;-87
2022/01/05 06:10:00;;;;;;;21.15;2.28;;;;;;;;;;5058230;28;20100;-87
2022/01/05 06:12:26;;;;;;;10.45;1.88;;;;;;;;;;5080536;28;20055;-89
2022/01/05 06:14:52;;;;;;;7.55;1.40;;;;;;;;;;5064028;28;20108;-88
2022/01/05 06:17:18;;;;;;;14.60;1.95;;;;;;;;;;5059011;28;20450;-88
2022/01/05 06:19:44;;;;;;;13.50;1.92;;;;;;;;;;5082312;28;20048;-88
2022/01/05 06:22:13;;;;;;;20.27;2.78;;;;;;;;;;5077786;28;20028;-87
2022/01/05 06:24:44;;;;;;;21.50;3.15;;;;;;;;;;5076031;28;20036;-89
2022/01/05 06:27:13;;;;;;;35.25;5.10;;;;;;;;;;5054409;28;20112;-87
2022/01/05 06:30:10;;;;;;;11.27;1.73;;;;;;;;;;5052208;28;20032;-88
2022/01/05 06:32:41;;;;;;;9.63;1.98;;;;;;;;;;5044089;28;20044;-87
2022/01/05 06:35:10;;;;;;;10.52;1.65;;;;;;;;;;5058079;28;20087;-88
2022/01/05 06:37:37;;;;;;;17.65;1.95;;;;;;;;;;5067689;28;20108;-88
2022/01/05 06:40:11;;;;;;;13.50;2.22;;;;;;;;;;5065353;28;20055;-86
2022/01/05 06:42:37;;;;;;;46.75;4.90;;;;;;;;;;5062562;28;20025;-87
2022/01/05 06:45:03;;;;;;;15.57;1.88;;;;;;;;;;5074104;28;20288;-87
2022/01/05 06:47:29;;;;;;;15.75;2.85;;;;;;;;;;5070948;28;20420;-87
2022/01/05 06:49:56;;;;;;;20.48;2.00;;;;;;;;;;5070143;28;20037;-87
2022/01/05 06:52:22;;;;;;;19.20;2.47;;;;;;;;;;5077089;28;20100;-86
2022/01/05 06:54:48;;;;;;;16.25;2.47;;;;;;;;;;5074133;28;20029;-85
2022/01/05 06:57:17;;;;;;;20.70;2.63;;;;;;;;;;5075838;28;20041;-87
2022/01/05 06:59:49;;;;;;;11.50;1.38;;;;;;;;;;5060071;28;20116;-88
2022/01/05 07:02:16;;;;;;;15.85;1.55;;;;;;;;;;5057025;28;20044;-88
2022/01/05 07:04:42;;;;;;;15.48;2.40;;;;;;;;;;5060587;28;20244;-87
2022/01/05 07:07:09;;;;;;;13.55;1.90;;;;;;;;;;5076988;28;20068;-86
2022/01/05 07:09:35;;;;;;;11.63;1.95;;;;;;;;;;5079184;28;20028;-87
2022/01/05 07:12:01;;;;;;;11.57;1.63;;;;;;;;;;5055064;28;20267;-88
2022/01/05 07:14:28;;;;;;;18.08;1.73;;;;;;;;;;5060695;28;20175;-86
2022/01/05 07:16:54;;;;;;;13.45;1.83;;;;;;;;;;5066847;28;20206;-87
2022/01/05 07:19:20;;;;;;;11.02;2.20;;;;;;;;;;5075530;28;20103;-85
2022/01/05 07:21:49;;;;;;;16.48;2.22;;;;;;;;;;5055980;28;20089;-86
2022/01/05 07:24:19;;;;;;;26.17;3.42;;;;;;;;;;5057758;28;20036;-85
2022/01/05 07:26:45;;;;;;;13.77;1.85;;;;;;;;;;5050027;28;20345;-86
2022/01/05 07:29:15;;;;;;;22.77;3.72;;;;;;;;;;5070565;28;20287;-87
2022/01/05 07:31:47;;;;;;;15.05;2.20;;;;;;;;;;5076344;28;20484;-89
2022/01/05 07:34:18;;;;;;;15.80;2.15;;;;;;;;;;5047056;28;20033;-90
2022/01/05 07:36:45;;;;;;;7.05;1.10;;;;;;;;;;5050886;28;20323;-89
2022/01/05 07:39:11;;;;;;;10.25;1.55;;;;;;;;;;5056389;28;20032;-88
2022/01/05 07:41:37;;;;;;;13.27;1.63;;;;;;;;;;5071075;28;20051;-88
2022/01/05 07:44:04;;;;;;;11.05;2.05;;;;;;;;;;5069935;28;20029;-87
2022/01/05 07:46:30;;;;;;;7.60;1.35;;;;;;;;;;5070229;28;20047;-88
2022/01/05 07:48:56;;;;;;;15.50;1.88;;;;;;;;;;5070541;28;20053;-86
2022/01/05 07:51:23;;;;;;;14.23;2.15;;;;;;;;;;5071381;28;20025;-87
2022/01/05 07:53:52;;;;;;;15.35;2.35;;;;;;;;;;5060040;28;20036;-88
2022/01/05 07:56:21;;;;;;;20.33;2.78;;;;;;;;;;5072716;28;20314;-89
2022/01/05 07:58:48;;;;;;;21.65;3.90;;;;;;;;;;5059168;28;20029;-88
2022/01/05 08:01:18;;;;;;;18.27;3.28;;;;;;;;;;5070907;28;20112;-87
2022/01/05 08:03:48;;;;;;;12.23;2.13;;;;;;;;;;5049379;28;20037;-88
2022/01/05 08:06:14;;;;;;;10.00;1.60;;;;;;;;;;5072037;28;20115;-87
2022/01/05 08:08:43;;;;;;;14.40;2.10;;;;;;;;;;5072546;28;20071;-88
2022/01/05 08:11:10;;;;;;;14.50;2.28;;;;;;;;;;5058543;28;20039;-85
2022/01/05 08:13:39;;;;;;;12.75;2.00;;;;;;;;;;5074544;28;20036;-88
2022/01/05 08:16:05;;;;;;;11.02;2.20;;;;;;;;;;5078881;28;20266;-87
2022/01/05 08:18:32;;;;;;;6.25;1.42;;;;;;;;;;5057861;28;20093;-88
2022/01/05 08:20:58;;;;;;;13.77;2.15;;;;;;;;;;5057816;28;20074;-87
2022/01/05 08:23:24;;;;;;;10.73;1.77;;;;;;;;;;5076888;28;20053;-89
2022/01/05 08:25:51;;;;;;;22.73;3.80;;;;;;;;;;5066780;28;20025;-87
2022/01/05 08:28:18;;;;;;;15.27;2.53;;;;;;;;;;5058073;28;20080;-89
2022/01/05 08:30:45;;;;;;;14.73;3.38;;;;;;;;;;5068579;28;20048;-89
2022/01/05 08:33:12;;;;;;;16.98;2.78;;;;;;;;;;5069574;28;20800;-91
2022/01/05 08:35:38;;;;;;;7.60;1.55;;;;;;;;;;5066425;28;20044;-90
2022/01/05 08:38:04;;;;;;;6.13;1.00;;;;;;;;;;5073545;28;20037;-90
2022/01/05 08:40:31;;;;;;;4.15;0.80;;;;;;;;;;5066269;28;20047;-90
2022/01/05 08:42:57;;;;;;;2.30;0.57;;;;;;;;;;5077707;28;20167;-90
2022/01/05 08:45:24;;;;;;;4.43;1.15;;;;;;;;;;5073303;28;20047;-90
2022/01/05 08:47:51;;;;;;;5.07;0.90;;;5.20;99.90;;;;;;5057862;28;20033;-89
2022/01/05 08:50:19;;;;;;;5.15;1.27;;;;;;;;;;5064607;28;20032;-88
2022/01/05 08:52:45;;;;;;;12.88;2.50;;;;;;;;;;5077026;28;20025;-89
2022/01/05 08:55:11;;;;;;;14.13;3.10;;;;;;;;;;5059583;28;20063;-90
2022/01/05 08:57:40;;;;;;;12.52;2.45;;;;;;;;;;5055770;28;20032;-90
2022/01/05 09:00:07;;;;;;;12.05;2.38;;;5.60;99.90;;;;;;5057589;28;20048;-89
2022/01/05 09:02:33;;;;;;;8.07;2.03;;;;;;;;;;5059533;28;20064;-88
2022/01/05 09:04:59;;;;;;;18.77;2.53;;;;;;;;;;5057905;28;20086;-89
2022/01/05 09:07:26;;;;;;;15.55;3.35;;;;;;;;;;5069510;28;20056;-90
2022/01/05 09:09:52;;;;;;;16.98;3.15;;;;;;;;;;5062290;28;20095;-89
2022/01/05 09:12:18;;;;;;;16.88;4.05;;;;;;;;;;5053577;28;20029;-90
2022/01/05 09:14:44;;;;;;;15.63;3.92;;;;;;;;;;5054097;28;20032;-90
2022/01/05 09:17:10;;;;;;;12.65;2.35;;;;;;;;;;5071651;28;20028;-89
2022/01/05 09:19:37;;;;;;;9.57;2.15;;;;;;;;;;5064022;28;20033;-89
2022/01/05 09:22:04;;;;;;;8.13;1.70;;;;;;;;;;5055439;28;20051;-88
2022/01/05 09:24:32;;;;;;;10.10;1.63;;;;;;;;;;5054827;28;20033;-89
2022/01/05 09:27:02;;;;;;;5.65;1.52;;;;;;;;;;5052456;28;20148;-86
2022/01/05 09:29:29;;;;;;;14.65;2.30;;;;;;;;;;5056412;28;20029;-89
2022/01/05 09:31:55;;;;;;;13.48;2.20;;;;;;;;;;5074413;28;20028;-90
2022/01/05 09:34:22;;;;;;;13.02;2.90;;;;;;;;;;5076197;28;20375;-89
2022/01/05 09:36:51;;;;;;;13.07;2.35;;;;;;;;;;5074984;28;20040;-90
2022/01/05 09:42:05;;;;;;;11.03;1.93;;;;;;;;;;5070026;28;20373;-90
2022/01/05 09:44:38;;;;;;;12.77;2.60;;;6.10;99.90;;;;;;5056753;28;20036;-90
2022/01/05 09:47:20;;;;;;;8.35;2.17;;;6.10;99.90;;;;;;5057314;28;20270;-89
2022/01/05 09:50:07;;;;;;;7.40;1.95;;;6.30;99.90;;;;;;5077612;28;20055;-90
2022/01/05 09:52:36;;;;;;;11.23;1.20;;;;;;;;;;5072157;28;20274;-88
2022/01/05 09:55:03;;;;;;;15.57;1.42;;;;;;;;;;5054656;28;20036;-88
2022/01/05 09:57:29;;;;;;;11.40;1.80;;;;;;;;;;5053651;28;20052;-89
2022/01/05 09:59:56;;;;;;;12.57;2.60;;;;;;;;;;5057700;28;20298;-89
2022/01/05 10:02:23;;;;;;;10.00;1.80;;;6.70;99.90;;;;;;5072315;28;20036;-89
2022/01/05 10:04:49;;;;;;;12.38;1.90;;;;;;;;;;5074097;28;20100;-89
2022/01/05 10:07:16;;;;;;;13.10;3.70;;;;;;;;;;5054102;28;20039;-89
2022/01/05 10:09:43;;;;;;;13.68;3.08;;;;;;;;;;5053426;28;20048;-90
2022/01/05 10:12:10;;;;;;;13.25;2.58;;;;;;;;;;5070490;28;20250;-89
2022/01/05 10:14:39;;;;;;;15.70;2.55;;;;;;;;;;5061172;28;20028;-88
2022/01/05 10:17:11;;;;;;;20.80;3.60;;;;;;;;;;5060068;28;20135;-88
2022/01/05 10:19:37;;;;;;;13.50;2.33;;;8.90;99.90;;;;;;5066494;28;20072;-87
2022/01/05 10:22:05;;;;;;;15.43;2.65;;;;;;;;;;5055512;28;20117;-87
2022/01/05 10:24:42;;;;;;;11.45;2.33;;;;;;;;;;5056424;28;20033;-88
2022/01/05 10:27:08;;;;;;;12.43;2.17;;;;;;;;;;5077198;28;20259;-88
2022/01/05 10:29:35;;;;;;;8.23;2.10;;;;;;;;;;5066638;28;20060;-87
2022/01/05 10:32:01;;;;;;;11.10;2.10;;;;;;;;;;5065102;28;20181;-87
2022/01/05 10:34:32;;;;;;;13.77;2.88;;;9.30;99.90;;;;;;5067082;28;20290;-87
2022/01/05 10:37:06;;;;;;;9.75;2.20;;;;;;;;;;5066787;28;20033;-88
2022/01/05 10:39:42;;;;;;;14.63;2.55;;;;;;;;;;5065387;28;20302;-87
2022/01/05 10:42:10;;;;;;;12.27;1.52;;;;;;;;;;5073651;28;20045;-87
2022/01/05 10:44:37;;;;;;;15.60;2.72;;;;;;;;;;5070627;28;20036;-87
2022/01/05 10:47:05;;;;;;;11.02;2.97;;;;;;;;;;5076330;28;20171;-87
2022/01/05 10:49:39;;;;;;;8.50;2.13;;;;;;;;;;5075148;28;20346;-89
2022/01/05 10:52:20;;;;;;;15.20;2.88;;;;;;;;;;5058897;28;20024;-90
2022/01/05 10:54:46;;;;;;;13.57;2.80;;;;;;;;;;5060418;28;20371;-88
2022/01/05 10:57:13;;;;;;;18.70;3.20;;;;;;;;;;5057642;28;20053;-89
2022/01/05 10:59:42;;;;;;;17.00;3.40;;;;;;;;;;5076473;28;20044;-88
2022/01/05 11:02:27;;;;;;;17.13;3.78;;;;;;;;;;5049766;28;20178;-88
2022/01/05 11:04:54;;;;;;;9.48;1.48;;;;;;;;;;5070320;28;20079;-88
2022/01/05 11:07:24;;;;;;;9.43;1.38;;;;;;;;;;5071557;28;20041;-88
2022/01/05 11:09:59;;;;;;;4.80;1.00;;;7.30;1.00;;;;;;5073058;28;20103;-88
2022/01/05 11:12:42;;;;;;;4.30;0.82;;;;;;;;;;5053112;28;20079;-88
2022/01/05 11:15:21;;;;;;;5.07;1.13;;;;;;;;;;5057073;28;20032;-88
2022/01/05 11:18:08;;;;;;;11.35;1.75;;;;;;;;;;5066741;28;20063;-88
2022/01/05 11:20:35;;;;;;;7.65;1.42;;;;;;;;;;5070440;28;20043;-88
2022/01/05 11:23:01;;;;;;;12.70;2.40;;;;;;;;;;5070126;28;20167;-87
2022/01/05 11:25:27;;;;;;;9.60;2.42;;;;;;;;;;5052176;28;20193;-88
2022/01/05 11:27:53;;;;;;;16.83;2.22;;;;;;;;;;5074092;28;20278;-88
2022/01/05 11:30:20;;;;;;;13.77;2.15;;;;;;;;;;5048614;28;20045;-87
2022/01/05 11:32:46;;;;;;;8.95;1.70;;;;;;;;;;5068194;28;20063;-87
2022/01/05 11:35:12;;;;;;;12.77;2.30;;;;;;;;;;5075943;28;20150;-87
2022/01/05 11:37:38;;;;;;;16.08;2.70;;;;;;;;;;5070164;28;20060;-87
2022/01/05 11:40:06;;;;;;;24.92;3.00;;;;;;;;;;5065929;28;20047;-87
2022/01/05 11:42:34;;;;;;;13.95;2.65;;;;;;;;;;5058960;28;20039;-87
2022/01/05 11:45:00;;;;;;;15.25;2.53;;;;;;;;;;5070319;28;20182;-87
2022/01/05 11:47:27;;;;;;;19.70;3.53;;;;;;;;;;5051402;28;20051;-87
2022/01/05 11:49:55;;;;;;;14.32;3.17;;;;;;;;;;5055013;28;20027;-87
2022/01/05 11:52:40;;;;;;;14.43;2.55;;;;;;;;;;5073962;28;20281;-88
2022/01/05 11:55:06;;;;;;;9.65;2.40;;;;;;;;;;5069980;28;20037;-87
2022/01/05 11:57:32;;;;;;;14.75;2.88;;;;;;;;;;5050237;28;20071;-87
2022/01/05 12:00:18;;;;;;;16.13;3.58;;;;;;;;;;5057934;28;20178;-87
2022/01/05 12:02:44;;;;;;;29.20;2.72;;;;;;;;;;5069873;28;20112;-87
2022/01/05 12:05:10;;;;;;;19.65;3.25;;;;;;;;;;5048407;28;20071;-88
2022/01/05 12:07:38;;;;;;;11.23;2.63;;;;;;;;;;5069555;28;20085;-87
2022/01/05 12:10:13;;;;;;;16.73;2.58;;;;;;;;;;5058116;28;20044;-87
2022/01/05 12:13:02;;;;;;;13.38;2.10;;;7.50;1.00;;;;;;5065111;28;20040;-87
2022/01/05 12:15:41;;;;;;;13.13;2.10;;;;;;;;;;5073759;28;20032;-87
2022/01/05 12:18:08;;;;;;;14.65;2.40;;;;;;;;;;5068655;28;20382;-87
2022/01/05 12:20:39;;;;;;;6.50;2.00;;;9.30;1.00;;;;;;5064801;28;20032;-87
2022/01/05 12:23:14;;;;;;;17.90;2.45;;;;;;;;;;5051149;28;20048;-87
2022/01/05 12:25:40;;;;;;;;;;;;;;;;;;5075031;28;20257;-87
2022/01/05 12:28:06;;;;;;;18.23;3.33;;;;;;;;;;5069609;28;19982;-87
2022/01/05 12:30:35;;;;;;;17.15;2.80;;;;;;;;;;5069428;28;20099;-87
2022/01/05 12:33:01;;;;;;;16.73;3.15;;;;;;;;;;5063689;28;20090;-86
2022/01/05 12:35:28;;;;;;;15.18;2.40;;;;;;;;;;5062243;28;20060;-87
2022/01/05 12:37:57;;;;;;;19.30;3.70;;;;;;;;;;5048544;28;20036;-88
2022/01/05 12:40:26;;;;;;;16.17;2.22;;;;;;;;;;5063518;28;20028;-87
2022/01/05 12:43:12;;;;;;;7.25;1.75;;;;;;;;;;5054232;28;20147;-87
2022/01/05 12:45:49;;;;;;;19.27;2.80;;;;;;;;;;5067860;28;20044;-87
2022/01/05 12:48:35;;;;;;;14.88;2.60;;;;;;;;;;5053403;28;20040;-87
2022/01/05 12:51:17;;;;;;;13.43;2.22;;;;;;;;;;5049157;28;20168;-87
2022/01/05 12:53:56;;;;;;;22.33;2.42;;;;;;;;;;5056264;28;20293;-86
2022/01/05 12:56:29;;;;;;;13.95;2.67;;;;;;;;;;5062436;28;20036;-86
2022/01/05 12:58:56;;;;;;;13.23;2.00;;;;;;;;;;5070969;28;20254;-86
2022/01/05 13:01:24;;;;;;;18.45;3.10;;;8.10;1.00;;;;;;5064506;28;20056;-86
2022/01/05 13:03:51;;;;;;;13.05;2.47;;;;;;;;;;5067954;28;20246;-86
2022/01/05 13:06:18;;;;;;;12.15;2.65;;;;;;;;;;5068879;28;20100;-86
2022/01/05 13:08:58;;;;;;;13.05;2.75;;;;;;;;;;5067807;28;20154;-88
2022/01/05 13:11:32;;;;;;;12.60;1.80;;;;;;;;;;5071083;28;20055;-87
2022/01/05 13:14:14;;;;;;;7.88;1.20;;;;;;;;;;5047219;28;20247;-85
2022/01/05 13:16:44;;;;;;;10.40;2.67;;;;;;;;;;5052017;28;20069;-87
2022/01/05 13:19:20;;;;;;;5.28;1.65;;;;;;;;;;5065984;28;20294;-86
2022/01/05 13:21:48;;;;;;;18.35;2.75;;;;;;;;;;5066644;28;20060;-85
2022/01/05 13:24:14;;;;;;;13.25;2.75;;;;;;;;;;5062650;28;21138;-87
2022/01/05 13:26:58;;;;;;;19.42;2.95;;;8.20;99.90;;;;;;5072130;28;20214;-86
2022/01/05 13:29:28;;;;;;;10.27;1.70;;;;;;;;;;5070182;28;20036;-89
2022/01/05 13:31:58;;;;;;;14.65;2.60;;;;;;;;;;5056720;28;20475;-88
2022/01/05 13:34:38;;;;;;;8.38;1.60;;;;;;;;;;5060174;28;20033;-88
2022/01/05 13:37:05;;;;;;;10.13;1.50;;;;;;;;;;5069300;28;20048;-88
2022/01/05 13:39:42;;;;;;;7.57;1.30;;;;;;;;;;5073446;28;20029;-88
2022/01/05 13:42:10;;;;;;;7.93;1.05;;;;;;;;;;5063703;28;20044;-87
2022/01/05 13:44:37;;;;;;;11.60;1.80;;;;;;;;;;5050347;28;20033;-87
2022/01/05 13:47:04;;;;;;;9.23;1.50;;;;;;;;;;5047063;28;20033;-86
2022/01/05 13:49:31;;;;;;;15.52;2.72;;;;;;;;;;5070349;28;20134;-87
2022/01/05 13:52:08;;;;;;;7.20;1.17;;;;;;;;;;5066744;28;20221;-86
2022/01/05 13:54:35;;;;;;;15.43;2.63;;;;;;;;;;5067008;28;20086;-86
2022/01/05 13:57:01;;;;;;;18.75;2.53;;;;;;;;;;5071586;28;20067;-87
2022/01/05 13:59:38;;;;;;;12.52;2.10;;;;;;;;;;5065159;28;20048;-87
2022/01/05 14:02:08;;;;;;;14.77;2.38;;;;;;;;;;5055053;28;20112;-87
2022/01/05 14:04:46;;;;;;;13.10;3.20;;;;;;;;;;5065388;28;20201;-85
2022/01/05 14:07:16;;;;;;;13.98;2.25;;;;;;;;;;5068068;28;20043;-86
2022/01/05 14:09:42;;;;;;;19.38;3.90;;;;;;;;;;5046933;28;20103;-86
2022/01/05 14:12:27;;;;;;;11.95;2.25;;;;;;;;;;5066948;28;20032;-85
2022/01/05 14:15:04;;;;;;;18.80;3.10;;;;;;;;;;5066853;28;20056;-85
2022/01/05 14:17:31;;;;;;;12.43;2.95;;;;;;;;;;5068191;28;20042;-85
2022/01/05 14:20:18;;;;;;;14.68;2.17;;;;;;;;;;5069307;28;20150;-86
2022/01/05 14:22:57;;;;;;;9.23;1.52;;;;;;;;;;5067188;28;20040;-86
2022/01/05 14:25:31;;;;;;;21.10;3.75;;;;;;;;;;5067521;28;20025;-89
2022/01/05 14:27:57;;;;;;;12.23;2.03;;;;;;;;;;5052205;28;20026;-89
2022/01/05 14:30:31;;;;;;;11.70;1.70;;;;;;;;;;5047794;28;20727;-87
2022/01/05 14:32:57;;;;;;;11.65;2.13;;;;;;;;;;5049604;28;20045;-86
2022/01/05 14:35:28;;;;;;;11.27;2.20;;;;;;;;;;5066858;28;20213;-88
2022/01/05 14:37:55;;;;;;;12.10;1.30;;;;;;;;;;5059921;28;20029;-87
2022/01/05 14:40:28;;;;;;;9.60;1.42;;;;;;;;;;5055897;28;20329;-87